sensor_id;sensor_type;location;lat;lon;timestamp;pressure;altitude;pressure_sealevel;temperature;humidity
76297;BME280;65104;52.994;6.552;2023-08-07T00:01:25;100969.97;;;14.96;100.00
76297;BME280;65104;52.994;6.552;2023-08-07T00:03:50;100964.78;;;14.92;100.00
76297;BME280;65104;52.994;6.552;2023-08-07T00:06:16;100957.03;;;14.90;100.00
76297;BME280;65104;52.994;6.552;2023-08-07T00:08:41;100954.47;;;14.93;100.00
76297;BME280;65104;52.994;6.552;2023-08-07T00:11:08;100948.38;;;14.87;100.00
76297;BME280;65104;52.994;6.552;2023-08-07T00:13:34;100945.81;;;14.91;100.00
76297;BME280;65104;52.994;6.552;2023-08-07T00:15:59;100949.28;;;14.92;100.00
76297;BME280;65104;52.994;6.552;2023-08-07T00:18:25;100953.56;;;14.84;100.00
76297;BME280;65104;52.994;6.552;2023-08-07T00:20:50;100954.41;;;14.80;100.00
76297;BME280;65104;52.994;6.552;2023-08-07T00:23:15;100952.66;;;14.79;100.00
76297;BME280;65104;52.994;6.552;2023-08-07T00:25:41;100957.81;;;14.73;100.00
76297;BME280;65104;52.994;6.552;2023-08-07T00:28:06;100955.25;;;14.73;100.00
76297;BME280;65104;52.994;6.552;2023-08-07T00:30:31;100950.94;;;14.73;100.00
76297;BME280;65104;52.994;6.552;2023-08-07T00:32:57;100946.66;;;14.75;100.00
76297;BME280;65104;52.994;6.552;2023-08-07T00:35:22;100944.91;;;14.67;100.00
76297;BME280;65104;52.994;6.552;2023-08-07T00:37:48;100950.06;;;14.67;100.00
76297;BME280;65104;52.994;6.552;2023-08-07T00:40:13;100956.91;;;14.58;100.00
76297;BME280;65104;52.994;6.552;2023-08-07T00:42:38;100962.06;;;14.55;100.00
76297;BME280;65104;52.994;6.552;2023-08-07T00:45:04;100962.03;;;14.51;100.00
76297;BME280;65104;52.994;6.552;2023-08-07T00:47:30;100962.06;;;14.49;100.00
76297;BME280;65104;52.994;6.552;2023-08-07T00:49:57;100963.72;;;14.44;100.00
76297;BME280;65104;52.994;6.552;2023-08-07T00:52:24;100962.88;;;14.45;100.00
76297;BME280;65104;52.994;6.552;2023-08-07T00:54:49;100966.31;;;14.40;100.00
76297;BME280;65104;52.994;6.552;2023-08-07T00:57:15;100966.25;;;14.35;100.00
76297;BME280;65104;52.994;6.552;2023-08-07T00:59:42;100967.06;;;14.33;100.00
76297;BME280;65104;52.994;6.552;2023-08-07T01:02:09;100966.22;;;14.31;100.00
76297;BME280;65104;52.994;6.552;2023-08-07T01:04:34;100966.16;;;14.23;100.00
76297;BME280;65104;52.994;6.552;2023-08-07T01:07:00;100964.47;;;14.22;100.00
76297;BME280;65104;52.994;6.552;2023-08-07T01:09:26;100960.16;;;14.21;100.00
76297;BME280;65104;52.994;6.552;2023-08-07T01:12:27;100966.97;;;14.16;100.00
76297;BME280;65104;52.994;6.552;2023-08-07T01:15:12;100969.59;;;14.23;100.00
76297;BME280;65104;52.994;6.552;2023-08-07T01:17:37;100973.06;;;14.22;100.00
76297;BME280;65104;52.994;6.552;2023-08-07T01:20:03;100979.00;;;14.14;100.00
76297;BME280;65104;52.994;6.552;2023-08-07T01:22:29;100972.13;;;14.14;100.00
76297;BME280;65104;52.994;6.552;2023-08-07T01:24:54;100967.81;;;14.09;100.00
76297;BME280;65104;52.994;6.552;2023-08-07T01:32:26;100960.00;;;14.01;100.00
76297;BME280;65104;52.994;6.552;2023-08-07T01:34:54;100966.03;;;14.02;100.00
76297;BME280;65104;52.994;6.552;2023-08-07T01:37:22;100966.00;;;13.99;100.00
76297;BME280;65104;52.994;6.552;2023-08-07T01:39:49;100967.72;;;13.98;100.00
76297;BME280;65104;52.994;6.552;2023-08-07T01:42:16;100966.09;;;14.09;100.00
76297;BME280;65104;52.994;6.552;2023-08-07T01:44:41;100966.97;;;14.13;100.00
76297;BME280;65104;52.994;6.552;2023-08-07T01:47:07;100956.59;;;14.04;100.00
76297;BME280;65104;52.994;6.552;2023-08-07T01:49:32;100957.47;;;14.04;100.00
76297;BME280;65104;52.994;6.552;2023-08-07T01:51:58;100960.00;;;14.00;100.00
76297;BME280;65104;52.994;6.552;2023-08-07T01:54:23;100952.22;;;13.92;100.00
76297;BME280;65104;52.994;6.552;2023-08-07T01:56:48;100947.97;;;14.02;100.00
76297;BME280;65104;52.994;6.552;2023-08-07T01:59:14;100955.66;;;13.97;100.00
76297;BME280;65104;52.994;6.552;2023-08-07T02:01:39;100954.00;;;14.02;100.00
76297;BME280;65104;52.994;6.552;2023-08-07T02:04:04;100959.13;;;13.99;100.00
76297;BME280;65104;52.994;6.552;2023-08-07T02:06:30;100966.06;;;14.03;100.00
76297;BME280;65104;52.994;6.552;2023-08-07T02:08:55;100968.63;;;14.05;100.00
76297;BME280;65104;52.994;6.552;2023-08-07T02:11:21;100966.06;;;14.03;100.00
76297;BME280;65104;52.994;6.552;2023-08-07T02:13:46;100963.44;;;13.99;100.00
76297;BME280;65104;52.994;6.552;2023-08-07T02:16:12;100962.59;;;14.01;100.00
76297;BME280;65104;52.994;6.552;2023-08-07T02:18:37;100959.13;;;13.95;100.00
76297;BME280;65104;52.994;6.552;2023-08-07T02:21:02;100964.28;;;13.95;100.00
76297;BME280;65104;52.994;6.552;2023-08-07T02:23:28;100974.59;;;13.98;100.00
76297;BME280;65104;52.994;6.552;2023-08-07T02:25:54;100970.28;;;13.94;100.00
76297;BME280;65104;52.994;6.552;2023-08-07T02:28:19;100969.44;;;13.95;100.00
76297;BME280;65104;52.994;6.552;2023-08-07T02:30:45;100981.50;;;13.96;100.00
76297;BME280;65104;52.994;6.552;2023-08-07T02:33:14;100975.50;;;14.00;100.00
76297;BME280;65104;52.994;6.552;2023-08-07T02:35:39;100967.69;;;13.92;100.00
76297;BME280;65104;52.994;6.552;2023-08-07T02:38:04;100978.84;;;13.86;100.00
76297;BME280;65104;52.994;6.552;2023-08-07T02:40:30;100977.13;;;13.85;100.00
76297;BME280;65104;52.994;6.552;2023-08-07T02:42:55;100984.03;;;13.91;100.00
76297;BME280;65104;52.994;6.552;2023-08-07T02:45:21;100990.88;;;13.87;100.00
76297;BME280;65104;52.994;6.552;2023-08-07T02:47:46;100981.47;;;13.93;100.00
76297;BME280;65104;52.994;6.552;2023-08-07T02:50:12;100989.19;;;13.86;100.00
76297;BME280;65104;52.994;6.552;2023-08-07T02:52:37;100982.31;;;13.92;100.00
76297;BME280;65104;52.994;6.552;2023-08-07T02:55:02;100978.03;;;13.94;100.00
76297;BME280;65104;52.994;6.552;2023-08-07T02:57:28;100979.75;;;13.93;100.00
76297;BME280;65104;52.994;6.552;2023-08-07T02:59:54;100983.16;;;13.89;100.00
76297;BME280;65104;52.994;6.552;2023-08-07T03:02:19;100978.84;;;13.89;100.00
76297;BME280;65104;52.994;6.552;2023-08-07T03:04:44;100976.19;;;13.76;100.00
76297;BME280;65104;52.994;6.552;2023-08-07T03:07:10;100973.59;;;13.76;100.00
76297;BME280;65104;52.994;6.552;2023-08-07T03:09:35;100976.25;;;13.85;100.00
76297;BME280;65104;52.994;6.552;2023-08-07T03:12:01;100967.63;;;13.83;100.00
76297;BME280;65104;52.994;6.552;2023-08-07T03:14:28;100975.41;;;13.89;100.00
76297;BME280;65104;52.994;6.552;2023-08-07T03:16:54;100977.97;;;13.87;100.00
76297;BME280;65104;52.994;6.552;2023-08-07T03:19:19;100980.59;;;13.90;100.00
76297;BME280;65104;52.994;6.552;2023-08-07T03:21:46;100965.94;;;13.85;100.00
76297;BME280;65104;52.994;6.552;2023-08-07T03:24:12;100971.97;;;13.85;100.00
76297;BME280;65104;52.994;6.552;2023-08-07T03:26:37;100958.13;;;13.80;100.00
76297;BME280;65104;52.994;6.552;2023-08-07T03:29:02;100964.25;;;13.92;100.00
76297;BME280;65104;52.994;6.552;2023-08-07T03:31:28;100958.19;;;13.89;100.00
76297;BME280;65104;52.994;6.552;2023-08-07T03:33:53;100964.28;;;13.98;100.00
76297;BME280;65104;52.994;6.552;2023-08-07T03:36:19;100953.88;;;13.88;100.00
76297;BME280;65104;52.994;6.552;2023-08-07T03:38:44;100960.78;;;13.89;100.00
76297;BME280;65104;52.994;6.552;2023-08-07T03:41:09;100965.16;;;13.98;100.00
76297;BME280;65104;52.994;6.552;2023-08-07T03:43:35;100968.47;;;13.80;100.00
76297;BME280;65104;52.994;6.552;2023-08-07T03:46:00;100975.38;;;13.84;100.00
76297;BME280;65104;52.994;6.552;2023-08-07T03:48:26;100974.56;;;13.92;100.00
76297;BME280;65104;52.994;6.552;2023-08-07T03:50:51;100980.63;;;13.95;100.00
76297;BME280;65104;52.994;6.552;2023-08-07T03:53:17;100968.59;;;13.99;100.00
76297;BME280;65104;52.994;6.552;2023-08-07T03:55:42;100981.56;;;14.03;100.00
76297;BME280;65104;52.994;6.552;2023-08-07T03:58:08;100978.97;;;14.03;100.00
76297;BME280;65104;52.994;6.552;2023-08-07T04:00:33;100982.41;;;14.07;100.00
76297;BME280;65104;52.994;6.552;2023-08-07T04:02:59;100989.28;;;14.06;100.00
76297;BME280;65104;52.994;6.552;2023-08-07T04:05:24;100985.03;;;14.10;100.00
76297;BME280;65104;52.994;6.552;2023-08-07T04:07:49;100985.91;;;14.10;100.00
76297;BME280;65104;52.994;6.552;2023-08-07T04:10:15;100985.94;;;14.13;100.00
76297;BME280;65104;52.994;6.552;2023-08-07T04:12:40;100970.41;;;14.12;100.00
76297;BME280;65104;52.994;6.552;2023-08-07T04:15:06;100982.47;;;14.13;100.00
76297;BME280;65104;52.994;6.552;2023-08-07T04:17:32;100985.91;;;14.15;100.00
76297;BME280;65104;52.994;6.552;2023-08-07T04:19:57;100979.94;;;14.20;100.00
76297;BME280;65104;52.994;6.552;2023-08-07T04:22:22;100988.56;;;14.21;100.00
76297;BME280;65104;52.994;6.552;2023-08-07T04:24:48;100989.41;;;14.23;100.00
76297;BME280;65104;52.994;6.552;2023-08-07T04:27:13;100991.13;;;14.21;100.00
76297;BME280;65104;52.994;6.552;2023-08-07T04:29:38;100991.13;;;14.21;100.00
76297;BME280;65104;52.994;6.552;2023-08-07T04:32:04;100992.84;;;14.19;100.00
76297;BME280;65104;52.994;6.552;2023-08-07T04:34:30;100992.88;;;14.22;100.00
76297;BME280;65104;52.994;6.552;2023-08-07T04:36:55;100991.13;;;14.21;100.00
76297;BME280;65104;52.994;6.552;2023-08-07T04:39:21;100992.00;;;14.20;100.00
76297;BME280;65104;52.994;6.552;2023-08-07T04:41:47;100997.16;;;14.21;100.00
76297;BME280;65104;52.994;6.552;2023-08-07T04:44:15;101003.19;;;14.25;100.00
76297;BME280;65104;52.994;6.552;2023-08-07T04:46:40;100995.47;;;14.28;100.00
76297;BME280;65104;52.994;6.552;2023-08-07T04:49:06;100996.31;;;14.24;100.00
76297;BME280;65104;52.994;6.552;2023-08-07T04:51:31;100997.19;;;14.26;100.00
76297;BME280;65104;52.994;6.552;2023-08-07T04:53:57;101009.22;;;14.24;100.00
76297;BME280;65104;52.994;6.552;2023-08-07T04:56:22;101001.44;;;14.19;100.00
76297;BME280;65104;52.994;6.552;2023-08-07T04:58:48;101009.22;;;14.24;100.00
76297;BME280;65104;52.994;6.552;2023-08-07T05:01:13;101017.88;;;14.31;100.00
76297;BME280;65104;52.994;6.552;2023-08-07T05:03:38;101017.03;;;14.33;100.00
76297;BME280;65104;52.994;6.552;2023-08-07T05:06:04;101026.50;;;14.33;100.00
76297;BME280;65104;52.994;6.552;2023-08-07T05:08:29;101021.28;;;14.25;100.00
76297;BME280;65104;52.994;6.552;2023-08-07T05:10:55;101034.19;;;14.25;100.00
76297;BME280;65104;52.994;6.552;2023-08-07T05:13:20;101038.50;;;14.26;100.00
76297;BME280;65104;52.994;6.552;2023-08-07T05:15:48;101041.06;;;14.23;100.00
76297;BME280;65104;52.994;6.552;2023-08-07T05:18:14;101039.34;;;14.22;100.00
76297;BME280;65104;52.994;6.552;2023-08-07T05:20:40;101051.38;;;14.20;100.00
76297;BME280;65104;52.994;6.552;2023-08-07T05:23:05;101047.13;;;14.28;100.00
76297;BME280;65104;52.994;6.552;2023-08-07T05:25:31;101054.00;;;14.26;100.00
76297;BME280;65104;52.994;6.552;2023-08-07T05:27:56;101053.13;;;14.25;100.00
76297;BME280;65104;52.994;6.552;2023-08-07T05:30:22;101050.59;;;14.28;100.00
76297;BME280;65104;52.994;6.552;2023-08-07T05:32:47;101057.41;;;14.20;100.00
76297;BME280;65104;52.994;6.552;2023-08-07T05:35:12;101058.31;;;14.27;100.00
76297;BME280;65104;52.994;6.552;2023-08-07T05:37:38;101061.78;;;14.32;100.00
76297;BME280;65104;52.994;6.552;2023-08-07T05:40:04;101077.31;;;14.34;100.00
76297;BME280;65104;52.994;6.552;2023-08-07T05:42:30;101070.38;;;14.28;100.00
76297;BME280;65104;52.994;6.552;2023-08-07T05:44:55;101086.78;;;14.30;100.00
76297;BME280;65104;52.994;6.552;2023-08-07T05:47:21;101074.72;;;14.31;100.00
76297;BME280;65104;52.994;6.552;2023-08-07T05:49:46;101066.03;;;14.19;100.00
76297;BME280;65104;52.994;6.552;2023-08-07T05:52:11;101064.22;;;14.14;100.00
76297;BME280;65104;52.994;6.552;2023-08-07T05:54:37;101056.50;;;14.14;100.00
76297;BME280;65104;52.994;6.552;2023-08-07T05:57:02;101057.44;;;14.22;100.00
76297;BME280;65104;52.994;6.552;2023-08-07T05:59:28;101063.47;;;14.22;100.00
76297;BME280;65104;52.994;6.552;2023-08-07T06:01:53;101063.44;;;14.24;100.00
76297;BME280;65104;52.994;6.552;2023-08-07T06:04:20;101081.56;;;14.27;100.00
76297;BME280;65104;52.994;6.552;2023-08-07T06:06:46;101085.06;;;14.35;100.00
76297;BME280;65104;52.994;6.552;2023-08-07T06:09:12;101086.94;;;14.51;100.00
76297;BME280;65104;52.994;6.552;2023-08-07T06:11:37;101089.53;;;14.54;100.00
76297;BME280;65104;52.994;6.552;2023-08-07T06:14:03;101093.84;;;14.52;100.00
76297;BME280;65104;52.994;6.552;2023-08-07T06:16:28;101099.94;;;14.63;100.00
76297;BME280;65104;52.994;6.552;2023-08-07T06:18:53;101117.22;;;14.72;100.00
76297;BME280;65104;52.994;6.552;2023-08-07T06:21:19;101106.84;;;14.68;100.00
76297;BME280;65104;52.994;6.552;2023-08-07T06:23:45;101105.13;;;14.63;100.00
76297;BME280;65104;52.994;6.552;2023-08-07T06:26:11;101110.28;;;14.63;100.00
76297;BME280;65104;52.994;6.552;2023-08-07T06:28:36;101115.47;;;14.65;100.00
76297;BME280;65104;52.994;6.552;2023-08-07T06:31:05;101111.88;;;14.46;100.00
76297;BME280;65104;52.994;6.552;2023-08-07T06:33:31;101124.84;;;14.54;100.00
76297;BME280;65104;52.994;6.552;2023-08-07T06:36:00;101111.09;;;14.55;100.00
76297;BME280;65104;52.994;6.552;2023-08-07T06:38:25;101121.38;;;14.47;100.00
76297;BME280;65104;52.994;6.552;2023-08-07T06:40:51;101118.81;;;14.53;100.00
76297;BME280;65104;52.994;6.552;2023-08-07T06:43:16;101114.53;;;14.54;100.00
76297;BME280;65104;52.994;6.552;2023-08-07T06:45:42;101122.28;;;14.58;100.00
76297;BME280;65104;52.994;6.552;2023-08-07T06:48:07;101136.06;;;14.54;100.00
76297;BME280;65104;52.994;6.552;2023-08-07T06:50:32;101130.94;;;14.62;100.00
76297;BME280;65104;52.994;6.552;2023-08-07T06:52:58;101141.38;;;14.76;100.00
76297;BME280;65104;52.994;6.552;2023-08-07T06:55:23;101138.88;;;14.85;100.00
76297;BME280;65104;52.994;6.552;2023-08-07T06:57:49;101141.41;;;14.80;100.00
76297;BME280;65104;52.994;6.552;2023-08-07T07:00:15;101147.44;;;14.81;100.00
76297;BME280;65104;52.994;6.552;2023-08-07T07:02:40;101145.63;;;14.66;100.00
76297;BME280;65104;52.994;6.552;2023-08-07T07:05:06;101144.81;;;14.73;100.00
76297;BME280;65104;52.994;6.552;2023-08-07T07:07:31;101142.34;;;14.91;100.00
76297;BME280;65104;52.994;6.552;2023-08-07T07:09:57;101152.75;;;15.02;100.00
76297;BME280;65104;52.994;6.552;2023-08-07T07:12:25;101145.84;;;15.01;100.00
76297;BME280;65104;52.994;6.552;2023-08-07T07:14:51;101153.56;;;14.98;100.00
76297;BME280;65104;52.994;6.552;2023-08-07T07:17:16;101150.22;;;15.14;100.00
76297;BME280;65104;52.994;6.552;2023-08-07T07:19:42;101156.34;;;15.34;100.00
76297;BME280;65104;52.994;6.552;2023-08-07T07:22:07;101159.81;;;15.41;100.00
76297;BME280;65104;52.994;6.552;2023-08-07T07:24:32;101164.09;;;15.28;100.00
76297;BME280;65104;52.994;6.552;2023-08-07T07:26:58;101153.75;;;15.28;100.00
76297;BME280;65104;52.994;6.552;2023-08-07T07:29:23;101152.88;;;15.31;100.00
76297;BME280;65104;52.994;6.552;2023-08-07T07:31:50;101157.19;;;15.30;100.00
76297;BME280;65104;52.994;6.552;2023-08-07T07:34:15;101158.88;;;15.25;100.00
76297;BME280;65104;52.994;6.552;2023-08-07T07:36:40;101156.25;;;15.12;100.00
76297;BME280;65104;52.994;6.552;2023-08-07T07:39:06;101165.66;;;15.03;100.00
76297;BME280;65104;52.994;6.552;2023-08-07T07:41:31;101159.63;;;15.05;100.00
76297;BME280;65104;52.994;6.552;2023-08-07T07:43:57;101167.34;;;14.97;100.00
76297;BME280;65104;52.994;6.552;2023-08-07T07:46:22;101171.66;;;14.95;100.00
76297;BME280;65104;52.994;6.552;2023-08-07T07:48:49;101180.28;;;14.97;100.00
76297;BME280;65104;52.994;6.552;2023-08-07T07:51:14;101186.28;;;14.94;100.00
76297;BME280;65104;52.994;6.552;2023-08-07T07:53:39;101188.03;;;14.97;100.00
76297;BME280;65104;52.994;6.552;2023-08-07T07:56:05;101193.16;;;14.85;100.00
76297;BME280;65104;52.994;6.552;2023-08-07T07:58:33;101193.16;;;14.88;100.00
76297;BME280;65104;52.994;6.552;2023-08-07T08:00:58;101191.38;;;14.81;100.00
76297;BME280;65104;52.994;6.552;2023-08-07T08:03:23;101193.09;;;14.76;100.00
76297;BME280;65104;52.994;6.552;2023-08-07T08:05:50;101205.13;;;14.74;100.00
76297;BME280;65104;52.994;6.552;2023-08-07T08:08:16;101198.44;;;15.03;100.00
76297;BME280;65104;52.994;6.552;2023-08-07T08:10:42;101210.59;;;15.22;100.00
76297;BME280;65104;52.994;6.552;2023-08-07T08:13:09;101224.44;;;15.27;100.00
76297;BME280;65104;52.994;6.552;2023-08-07T08:15:34;101214.88;;;15.11;100.00
76297;BME280;65104;52.994;6.552;2023-08-07T08:18:00;101214.81;;;15.03;100.00
76297;BME280;65104;52.994;6.552;2023-08-07T08:20:25;101225.16;;;15.00;100.00
76297;BME280;65104;52.994;6.552;2023-08-07T08:22:51;101225.00;;;14.82;100.00
76297;BME280;65104;52.994;6.552;2023-08-07T08:25:16;101231.78;;;14.67;100.00
76297;BME280;65104;52.994;6.552;2023-08-07T08:27:43;101241.13;;;14.49;100.00
76297;BME280;65104;52.994;6.552;2023-08-07T08:30:09;101238.66;;;14.64;100.00
76297;BME280;65104;52.994;6.552;2023-08-07T08:32:34;101247.38;;;14.74;100.00
76297;BME280;65104;52.994;6.552;2023-08-07T08:35:00;101234.47;;;14.79;100.00
76297;BME280;65104;52.994;6.552;2023-08-07T08:37:25;101231.06;;;14.83;100.00
76297;BME280;65104;52.994;6.552;2023-08-07T08:39:51;101230.16;;;14.81;100.00
76297;BME280;65104;52.994;6.552;2023-08-07T08:42:16;101225.09;;;14.91;100.00
76297;BME280;65104;52.994;6.552;2023-08-07T08:44:51;101225.94;;;14.92;100.00
76297;BME280;65104;52.994;6.552;2023-08-07T08:47:17;101236.31;;;14.98;100.00
76297;BME280;65104;52.994;6.552;2023-08-07T08:49:46;101225.28;;;15.20;100.00
76297;BME280;65104;52.994;6.552;2023-08-07T08:52:12;101233.09;;;15.32;100.00
76297;BME280;65104;52.994;6.552;2023-08-07T08:54:39;101219.34;;;15.43;100.00
76297;BME280;65104;52.994;6.552;2023-08-07T08:57:06;101222.13;;;15.77;100.00
76297;BME280;65104;52.994;6.552;2023-08-07T08:59:32;101210.13;;;16.14;100.00
76297;BME280;65104;52.994;6.552;2023-08-07T09:01:59;101213.59;;;16.24;100.00
76297;BME280;65104;52.994;6.552;2023-08-07T09:04:24;101206.72;;;16.46;100.00
76297;BME280;65104;52.994;6.552;2023-08-07T09:06:49;101216.22;;;16.58;100.00
76297;BME280;65104;52.994;6.552;2023-08-07T09:09:16;101212.81;;;16.72;100.00
76297;BME280;65104;52.994;6.552;2023-08-07T09:11:45;101213.59;;;17.09;100.00
76297;BME280;65104;52.994;6.552;2023-08-07T09:14:16;101214.53;;;16.81;100.00
76297;BME280;65104;52.994;6.552;2023-08-07T09:16:43;101224.84;;;16.57;100.00
76297;BME280;65104;52.994;6.552;2023-08-07T09:19:08;101233.56;;;16.81;100.00
76297;BME280;65104;52.994;6.552;2023-08-07T09:21:34;101231.81;;;16.67;100.00
76297;BME280;65104;52.994;6.552;2023-08-07T09:24:00;101220.53;;;17.01;100.00
76297;BME280;65104;52.994;6.552;2023-08-07T09:26:25;101221.41;;;17.05;100.00
76297;BME280;65104;52.994;6.552;2023-08-07T09:28:52;101228.28;;;17.24;100.00
76297;BME280;65104;52.994;6.552;2023-08-07T09:31:23;101224.72;;;17.55;100.00
76297;BME280;65104;52.994;6.552;2023-08-07T09:33:51;101229.00;;;17.79;100.00
76297;BME280;65104;52.994;6.552;2023-08-07T09:36:17;101227.13;;;17.99;97.13
76297;BME280;65104;52.994;6.552;2023-08-07T09:38:45;101219.53;;;17.54;100.00
76297;BME280;65104;52.994;6.552;2023-08-07T09:41:17;101227.47;;;17.08;100.00
76297;BME280;65104;52.994;6.552;2023-08-07T09:43:43;101243.91;;;16.78;100.00
76297;BME280;65104;52.994;6.552;2023-08-07T09:46:08;101243.00;;;16.57;100.00
76297;BME280;65104;52.994;6.552;2023-08-07T09:48:41;101261.09;;;16.14;100.00
76297;BME280;65104;52.994;6.552;2023-08-07T09:51:07;101268.81;;;16.03;100.00
76297;BME280;65104;52.994;6.552;2023-08-07T09:53:32;101256.72;;;16.04;100.00
76297;BME280;65104;52.994;6.552;2023-08-07T09:55:58;101255.03;;;16.13;100.00
76297;BME280;65104;52.994;6.552;2023-08-07T09:58:24;101248.22;;;16.96;100.00
76297;BME280;65104;52.994;6.552;2023-08-07T10:00:51;101248.22;;;17.17;100.00
76297;BME280;65104;52.994;6.552;2023-08-07T10:03:19;101247.34;;;17.05;100.00
76297;BME280;65104;52.994;6.552;2023-08-07T10:05:44;101250.75;;;17.34;100.00
76297;BME280;65104;52.994;6.552;2023-08-07T10:08:11;101264.50;;;17.74;95.42
76297;BME280;65104;52.994;6.552;2023-08-07T10:10:37;101254.16;;;17.48;100.00
76297;BME280;65104;52.994;6.552;2023-08-07T10:13:03;101249.91;;;17.26;100.00
76297;BME280;65104;52.994;6.552;2023-08-07T10:15:31;101253.41;;;17.05;100.00
76297;BME280;65104;52.994;6.552;2023-08-07T10:17:57;101250.81;;;16.96;100.00
76297;BME280;65104;52.994;6.552;2023-08-07T10:20:24;101257.72;;;16.93;100.00
76297;BME280;65104;52.994;6.552;2023-08-07T10:22:52;101265.53;;;16.94;100.00
76297;BME280;65104;52.994;6.552;2023-08-07T10:25:20;101255.16;;;16.71;100.00
76297;BME280;65104;52.994;6.552;2023-08-07T10:27:48;101263.81;;;16.99;100.00
76297;BME280;65104;52.994;6.552;2023-08-07T10:30:16;101264.63;;;17.12;100.00
76297;BME280;65104;52.994;6.552;2023-08-07T10:32:44;101270.69;;;17.17;100.00
76297;BME280;65104;52.994;6.552;2023-08-07T10:35:10;101272.44;;;17.15;98.43
76297;BME280;65104;52.994;6.552;2023-08-07T10:37:48;101260.31;;;17.00;95.10
76297;BME280;65104;52.994;6.552;2023-08-07T10:40:13;101269.84;;;17.03;99.72
76297;BME280;65104;52.994;6.552;2023-08-07T10:45:20;101281.09;;;16.85;100.00
76297;BME280;65104;52.994;6.552;2023-08-07T10:48:06;101299.25;;;16.71;100.00
76297;BME280;65104;52.994;6.552;2023-08-07T10:50:34;101287.13;;;16.64;100.00
76297;BME280;65104;52.994;6.552;2023-08-07T10:53:02;101295.75;;;16.60;100.00
76297;BME280;65104;52.994;6.552;2023-08-07T10:55:52;101301.84;;;16.64;100.00
76297;BME280;65104;52.994;6.552;2023-08-07T10:58:30;101309.53;;;16.56;99.96
76297;BME280;65104;52.994;6.552;2023-08-07T11:01:27;101294.91;;;17.17;100.00
76297;BME280;65104;52.994;6.552;2023-08-07T11:04:08;101283.47;;;17.96;93.90
76297;BME280;65104;52.994;6.552;2023-08-07T11:06:36;101288.28;;;18.69;91.16
76297;BME280;65104;52.994;6.552;2023-08-07T11:09:04;101286.75;;;18.27;93.34
76297;BME280;65104;52.994;6.552;2023-08-07T11:11:41;101283.56;;;17.75;90.60
76297;BME280;65104;52.994;6.552;2023-08-07T11:14:12;101281.88;;;17.45;93.00
76297;BME280;65104;52.994;6.552;2023-08-07T11:16:38;101295.75;;;17.30;95.27
76297;BME280;65104;52.994;6.552;2023-08-07T11:19:05;101279.34;;;17.16;96.33
76297;BME280;65104;52.994;6.552;2023-08-07T11:21:31;101284.47;;;17.52;94.63
76297;BME280;65104;52.994;6.552;2023-08-07T11:23:57;101290.53;;;17.36;95.22
76297;BME280;65104;52.994;6.552;2023-08-07T11:26:23;101290.56;;;17.18;96.08
76297;BME280;65104;52.994;6.552;2023-08-07T11:28:50;101297.53;;;17.07;91.59
76297;BME280;65104;52.994;6.552;2023-08-07T11:31:17;101301.84;;;16.85;87.53
76297;BME280;65104;52.994;6.552;2023-08-07T11:33:44;101294.03;;;17.31;89.14
76297;BME280;65104;52.994;6.552;2023-08-07T11:36:13;101292.03;;;18.16;88.12
76297;BME280;65104;52.994;6.552;2023-08-07T11:38:43;101286.84;;;18.12;86.36
76297;BME280;65104;52.994;6.552;2023-08-07T11:41:11;101286.94;;;17.95;85.65
76297;BME280;65104;52.994;6.552;2023-08-07T11:43:37;101288.63;;;17.99;87.25
76297;BME280;65104;52.994;6.552;2023-08-07T11:46:04;101296.38;;;18.16;85.49
76297;BME280;65104;52.994;6.552;2023-08-07T11:48:32;101309.38;;;18.14;84.23
76297;BME280;65104;52.994;6.552;2023-08-07T11:50:58;101311.13;;;18.12;87.54
76297;BME280;65104;52.994;6.552;2023-08-07T11:53:25;101301.66;;;17.96;84.87
76297;BME280;65104;52.994;6.552;2023-08-07T11:56:03;101290.41;;;17.92;87.32
76297;BME280;65104;52.994;6.552;2023-08-07T11:58:39;101292.97;;;17.98;89.68
76297;BME280;65104;52.994;6.552;2023-08-07T12:01:09;101292.81;;;18.30;86.99
76297;BME280;65104;52.994;6.552;2023-08-07T12:03:37;101286.84;;;18.12;88.37
76297;BME280;65104;52.994;6.552;2023-08-07T12:06:05;101293.72;;;18.23;86.92
76297;BME280;65104;52.994;6.552;2023-08-07T12:08:39;101294.44;;;18.45;86.73
76297;BME280;65104;52.994;6.552;2023-08-07T12:11:07;101294.50;;;18.36;86.56
76297;BME280;65104;52.994;6.552;2023-08-07T12:13:37;101308.38;;;18.36;89.40
76297;BME280;65104;52.994;6.552;2023-08-07T12:16:03;101295.50;;;18.14;88.28
76297;BME280;65104;52.994;6.552;2023-08-07T12:18:29;101308.66;;;17.77;91.50
76297;BME280;65104;52.994;6.552;2023-08-07T12:20:59;101329.50;;;17.44;94.75
76297;BME280;65104;52.994;6.552;2023-08-07T12:23:25;101341.63;;;16.99;100.00
76297;BME280;65104;52.994;6.552;2023-08-07T12:25:50;101354.56;;;16.73;100.00
76297;BME280;65104;52.994;6.552;2023-08-07T12:28:17;101368.41;;;16.87;100.00
76297;BME280;65104;52.994;6.552;2023-08-07T12:30:47;101365.81;;;16.71;100.00
76297;BME280;65104;52.994;6.552;2023-08-07T12:33:13;101361.50;;;16.86;100.00
76297;BME280;65104;52.994;6.552;2023-08-07T12:35:39;101365.00;;;17.16;100.00
76297;BME280;65104;52.994;6.552;2023-08-07T12:38:05;101362.38;;;17.04;100.00
76297;BME280;65104;52.994;6.552;2023-08-07T12:40:31;101351.84;;;18.13;100.00
76297;BME280;65104;52.994;6.552;2023-08-07T12:42:58;101346.78;;;17.71;100.00
76297;BME280;65104;52.994;6.552;2023-08-07T12:45:23;101347.63;;;17.54;100.00